createdAt,value
2017-06-24T00:00:25.235Z,954.66
2017-06-24T00:01:25.232Z,954.65
2017-06-24T00:02:25.227Z,954.64
2017-06-24T00:03:25.222Z,954.64
2017-06-24T00:04:25.218Z,954.7
2017-06-24T00:05:25.238Z,954.7
2017-06-24T00:06:25.209Z,954.68
2017-06-24T00:07:25.205Z,954.71
2017-06-24T00:08:25.200Z,954.68
2017-06-24T00:09:25.197Z,954.66
2017-06-24T00:10:25.193Z,954.65
2017-06-24T00:11:25.187Z,954.65
2017-06-24T00:12:25.184Z,954.64
2017-06-24T00:13:25.179Z,954.61
2017-06-24T00:14:25.194Z,954.65
2017-06-24T00:15:25.171Z,954.64
2017-06-24T00:16:25.169Z,954.64
2017-06-24T00:17:25.164Z,954.65
2017-06-24T00:18:25.159Z,954.55
2017-06-24T00:19:25.154Z,954.5
2017-06-24T00:20:25.150Z,954.49
2017-06-24T00:21:25.144Z,954.48
2017-06-24T00:22:25.140Z,954.47
2017-06-24T00:23:25.137Z,954.47
2017-06-24T00:24:25.131Z,954.49
2017-06-24T00:25:25.127Z,954.5
2017-06-24T00:26:25.131Z,954.45
2017-06-24T00:27:25.118Z,954.48
2017-06-24T00:28:25.114Z,954.49
2017-06-24T00:29:25.110Z,954.47
2017-06-24T00:30:25.105Z,954.52
2017-06-24T00:31:25.102Z,954.55
2017-06-24T00:32:25.098Z,954.5
2017-06-24T00:33:25.094Z,954.51
2017-06-24T00:34:25.089Z,954.49
2017-06-24T00:35:25.084Z,954.44
2017-06-24T00:36:25.081Z,954.44
2017-06-24T00:37:25.076Z,954.44
2017-06-24T00:38:25.071Z,954.45
2017-06-24T00:39:25.067Z,954.43
2017-06-24T00:40:25.062Z,954.42
2017-06-24T00:41:25.058Z,954.38
2017-06-24T00:42:25.056Z,954.39
2017-06-24T00:43:25.062Z,954.39
2017-06-24T00:44:25.045Z,954.43
2017-06-24T00:45:25.041Z,954.41
2017-06-24T00:46:25.036Z,954.4
2017-06-24T00:47:25.033Z,954.41
2017-06-24T00:48:25.028Z,954.41
2017-06-24T00:49:25.024Z,954.42
2017-06-24T00:50:25.019Z,954.44
2017-06-24T00:51:25.014Z,954.47
2017-06-24T00:52:25.011Z,954.48
2017-06-24T00:53:25.006Z,954.49
2017-06-24T00:54:25.000Z,954.45
2017-06-24T00:55:24.998Z,954.48
2017-06-24T00:56:24.996Z,954.47
2017-06-24T00:57:24.989Z,954.44
2017-06-24T00:58:24.984Z,954.43
2017-06-24T00:59:24.980Z,954.43
2017-06-24T01:00:24.975Z,954.46
2017-06-24T01:01:24.971Z,954.49
2017-06-24T01:02:24.967Z,954.47
2017-06-24T01:03:24.961Z,954.5
2017-06-24T01:04:24.958Z,954.52
2017-06-24T01:05:24.953Z,954.55
2017-06-24T01:06:24.948Z,954.55
2017-06-24T01:07:24.944Z,954.54
2017-06-24T01:08:24.939Z,954.54
2017-06-24T01:09:24.935Z,954.52
2017-06-24T01:10:24.931Z,954.52
2017-06-24T01:11:24.928Z,954.53
2017-06-24T01:12:24.921Z,954.46
2017-06-24T01:13:24.917Z,954.51
2017-06-24T01:14:24.914Z,954.46
2017-06-24T01:15:24.912Z,954.56
2017-06-24T01:16:24.935Z,954.56
2017-06-24T01:17:24.900Z,954.52
2017-06-24T01:18:24.898Z,954.49
2017-06-24T01:19:24.890Z,954.51
2017-06-24T01:20:24.886Z,954.49
2017-06-24T01:21:24.884Z,954.49
2017-06-24T01:22:24.879Z,954.49
2017-06-24T01:23:24.875Z,954.46
2017-06-24T01:24:24.873Z,954.44
2017-06-24T01:25:24.867Z,954.45
2017-06-24T01:26:24.870Z,954.42
2017-06-24T01:27:24.857Z,954.38
2017-06-24T01:28:24.854Z,954.4
2017-06-24T01:29:24.850Z,954.39
2017-06-24T01:30:24.846Z,954.4
2017-06-24T01:31:24.842Z,954.39
2017-06-24T01:32:24.837Z,954.39
2017-06-24T01:33:24.833Z,954.39
2017-06-24T01:34:24.827Z,954.38
2017-06-24T01:35:24.823Z,954.39
2017-06-24T01:36:24.822Z,954.37
2017-06-24T01:37:24.815Z,954.39
2017-06-24T01:38:24.811Z,954.4
2017-06-24T01:39:24.807Z,954.37
2017-06-24T01:40:24.803Z,954.39
2017-06-24T01:41:24.798Z,954.36
2017-06-24T01:42:24.795Z,954.36
2017-06-24T01:43:24.791Z,954.36
2017-06-24T01:44:24.790Z,954.37
2017-06-24T01:45:24.780Z,954.35
2017-06-24T01:46:24.797Z,954.42
2017-06-24T01:47:24.773Z,954.39
2017-06-24T01:48:24.768Z,954.39
2017-06-24T01:49:24.764Z,954.42
2017-06-24T01:50:24.760Z,954.39
2017-06-24T01:51:24.755Z,954.39
2017-06-24T01:52:24.751Z,954.4
2017-06-24T01:53:24.747Z,954.37
2017-06-24T01:54:24.743Z,954.37
2017-06-24T01:55:24.740Z,954.38
2017-06-24T01:56:24.751Z,954.41
2017-06-24T01:57:24.730Z,954.36
2017-06-24T01:58:24.725Z,954.37
2017-06-24T01:59:24.720Z,954.37
2017-06-24T02:00:24.719Z,954.34
2017-06-24T02:01:24.714Z,954.34
2017-06-24T02:02:24.709Z,954.36
2017-06-24T02:03:24.703Z,954.34
2017-06-24T02:04:24.700Z,954.33
2017-06-24T02:05:24.707Z,954.32
2017-06-24T02:06:24.692Z,954.31
2017-06-24T02:07:24.688Z,954.29
2017-06-24T02:08:24.684Z,954.32
2017-06-24T02:09:24.681Z,954.32
2017-06-24T02:10:24.676Z,954.35
2017-06-24T02:11:24.675Z,954.34
2017-06-24T02:12:24.666Z,954.33
2017-06-24T02:13:24.664Z,954.32
2017-06-24T02:14:24.660Z,954.31
2017-06-24T02:15:24.666Z,954.3
2017-06-24T02:16:24.652Z,954.32
2017-06-24T02:17:24.647Z,954.29
2017-06-24T02:18:24.642Z,954.27
2017-06-24T02:19:24.638Z,954.29
2017-06-24T02:20:24.634Z,954.28
2017-06-24T02:21:24.635Z,954.26
2017-06-24T02:22:24.639Z,954.24
2017-06-24T02:23:24.623Z,954.28
2017-06-24T02:24:24.618Z,954.27
2017-06-24T02:25:24.614Z,954.25
2017-06-24T02:26:24.610Z,954.25
2017-06-24T02:27:24.608Z,954.27
2017-06-24T02:28:24.603Z,954.26
2017-06-24T02:29:24.598Z,954.23
2017-06-24T02:30:24.594Z,954.23
2017-06-24T02:31:24.603Z,954.23
2017-06-24T02:32:24.585Z,954.21
2017-06-24T02:33:24.582Z,954.22
2017-06-24T02:34:24.578Z,954.25
2017-06-24T02:35:24.574Z,954.2
2017-06-24T02:36:24.570Z,954.22
2017-06-24T02:37:24.583Z,954.21
2017-06-24T02:38:24.564Z,954.23
2017-06-24T02:39:24.559Z,954.27
2017-06-24T02:40:24.554Z,954.21
2017-06-24T02:41:24.558Z,954.25
2017-06-24T02:42:24.556Z,954.2
2017-06-24T02:43:24.542Z,954.24
2017-06-24T02:44:24.539Z,954.24
2017-06-24T02:45:24.541Z,954.22
2017-06-24T02:46:24.531Z,954.23
2017-06-24T02:47:24.526Z,954.23
2017-06-24T02:48:24.522Z,954.22
2017-06-24T02:49:24.521Z,954.22
2017-06-24T02:50:24.516Z,954.23
2017-06-24T02:51:24.512Z,954.23
2017-06-24T02:52:24.507Z,954.19
2017-06-24T02:53:24.513Z,954.2
2017-06-24T02:54:24.503Z,954.16
2017-06-24T02:55:24.496Z,954.14
2017-06-24T02:56:24.493Z,954.15
2017-06-24T02:57:24.510Z,954.14
2017-06-24T02:58:24.483Z,954.12
2017-06-24T02:59:24.480Z,954.09
2017-06-24T03:00:24.476Z,954.11
2017-06-24T03:01:24.472Z,954.12
2017-06-24T03:02:24.470Z,954.12
2017-06-24T03:03:24.466Z,954.12
2017-06-24T03:04:24.462Z,954.15
2017-06-24T03:05:24.456Z,954.15
2017-06-24T03:06:24.453Z,954.19
2017-06-24T03:07:24.460Z,954.19
2017-06-24T03:08:24.445Z,954.16
2017-06-24T03:09:24.441Z,954.14
2017-06-24T03:10:24.437Z,954.15
2017-06-24T03:11:24.434Z,954.17
2017-06-24T03:12:24.428Z,954.15
2017-06-24T03:13:24.461Z,954.14
2017-06-24T03:14:24.422Z,954.11
2017-06-24T03:15:24.418Z,954.12
2017-06-24T03:16:24.442Z,954.12
2017-06-24T03:17:24.408Z,954.14
2017-06-24T03:18:24.404Z,954.11
2017-06-24T03:19:24.400Z,954.16
2017-06-24T03:20:24.394Z,954.18
2017-06-24T03:21:24.392Z,954.19
2017-06-24T03:22:24.388Z,954.2
2017-06-24T03:23:24.395Z,954.16
2017-06-24T03:24:24.378Z,954.19
2017-06-24T03:25:24.374Z,954.25
2017-06-24T03:26:24.369Z,954.2
2017-06-24T03:27:24.384Z,954.23
2017-06-24T03:28:24.363Z,954.24
2017-06-24T03:29:24.357Z,954.25
2017-06-24T03:30:24.353Z,954.3
2017-06-24T03:31:24.349Z,954.27
2017-06-24T03:32:24.345Z,954.31
2017-06-24T03:33:24.354Z,954.3
2017-06-24T03:34:24.337Z,954.31
2017-06-24T03:35:24.330Z,954.28
2017-06-24T03:36:24.340Z,954.24
2017-06-24T03:37:24.324Z,954.28
2017-06-24T03:38:24.319Z,954.28
2017-06-24T03:39:24.313Z,954.28
2017-06-24T03:40:24.310Z,954.3
2017-06-24T03:41:24.306Z,954.27
2017-06-24T03:42:24.302Z,954.26
2017-06-24T03:43:24.296Z,954.27
2017-06-24T03:44:24.293Z,954.25
2017-06-24T03:45:24.289Z,954.23
2017-06-24T03:46:24.286Z,954.27
2017-06-24T03:47:24.293Z,954.28
2017-06-24T03:48:24.277Z,954.26
2017-06-24T03:49:24.271Z,954.26
2017-06-24T03:50:24.266Z,954.26
2017-06-24T03:51:24.263Z,954.29
2017-06-24T03:52:24.259Z,954.29
2017-06-24T03:53:24.257Z,954.3
2017-06-24T03:54:24.250Z,954.26
2017-06-24T03:55:24.246Z,954.27
2017-06-24T03:56:24.256Z,954.24
2017-06-24T03:57:24.236Z,954.24
2017-06-24T03:58:24.237Z,954.23
2017-06-24T03:59:24.229Z,954.24
2017-06-24T04:00:24.224Z,954.27
2017-06-24T04:01:24.221Z,954.22
2017-06-24T04:02:24.216Z,954.19
2017-06-24T04:03:24.211Z,954.18
2017-06-24T04:04:24.206Z,954.19
2017-06-24T04:05:24.203Z,954.19
2017-06-24T04:06:24.198Z,954.19
2017-06-24T04:07:24.193Z,954.19
2017-06-24T04:08:24.189Z,954.21
2017-06-24T04:09:24.186Z,954.21
2017-06-24T04:10:24.183Z,954.21
2017-06-24T04:11:24.176Z,954.29
2017-06-24T04:12:24.173Z,954.27
2017-06-24T04:13:24.169Z,954.25
2017-06-24T04:14:24.165Z,954.26
2017-06-24T04:15:24.159Z,954.28
2017-06-24T04:16:24.171Z,954.32
2017-06-24T04:17:24.152Z,954.35
2017-06-24T04:18:24.147Z,954.33
2017-06-24T04:19:24.143Z,954.36
2017-06-24T04:20:24.139Z,954.35
2017-06-24T04:21:24.135Z,954.38
2017-06-24T04:22:24.131Z,954.41
2017-06-24T04:23:24.126Z,954.43
2017-06-24T04:24:24.123Z,954.4
2017-06-24T04:25:24.120Z,954.4
2017-06-24T04:26:24.129Z,954.4
2017-06-24T04:27:24.129Z,954.37
2017-06-24T04:28:24.107Z,954.45
2017-06-24T04:29:24.102Z,954.42
2017-06-24T04:30:24.096Z,954.43
2017-06-24T04:31:24.093Z,954.44
2017-06-24T04:32:24.089Z,954.4
2017-06-24T04:33:24.085Z,954.42
2017-06-24T04:34:24.080Z,954.48
2017-06-24T04:35:24.077Z,954.44
2017-06-24T04:36:24.072Z,954.46
2017-06-24T04:37:24.068Z,954.46
2017-06-24T04:38:24.065Z,954.43
2017-06-24T04:39:24.065Z,954.46
2017-06-24T04:40:24.058Z,954.49
2017-06-24T04:41:24.054Z,954.43
2017-06-24T04:42:24.050Z,954.44
2017-06-24T04:43:24.046Z,954.44
2017-06-24T04:44:24.042Z,954.45
2017-06-24T04:45:24.039Z,954.43
2017-06-24T04:46:24.036Z,954.43
2017-06-24T04:47:24.042Z,954.43
2017-06-24T04:48:24.048Z,954.4
2017-06-24T04:49:24.024Z,954.4
2017-06-24T04:50:24.023Z,954.41
2017-06-24T04:51:24.017Z,954.43
2017-06-24T04:52:24.014Z,954.45
2017-06-24T04:53:24.011Z,954.44
2017-06-24T04:54:24.007Z,954.45
2017-06-24T04:55:24.002Z,954.43
2017-06-24T04:56:24.000Z,954.47
2017-06-24T04:57:23.996Z,954.49
2017-06-24T04:58:23.991Z,954.45
2017-06-24T04:59:23.989Z,954.46
2017-06-24T05:00:23.985Z,954.46
2017-06-24T05:01:23.983Z,954.44
2017-06-24T05:02:23.978Z,954.45
2017-06-24T05:03:23.976Z,954.44
2017-06-24T05:04:23.983Z,954.45
2017-06-24T05:05:23.970Z,954.44
2017-06-24T05:06:23.964Z,954.45
2017-06-24T05:07:23.962Z,954.45
2017-06-24T05:08:23.959Z,954.43
2017-06-24T05:09:23.955Z,954.47
2017-06-24T05:10:23.952Z,954.41
2017-06-24T05:11:23.949Z,954.42
2017-06-24T05:12:23.946Z,954.46
2017-06-24T05:13:23.942Z,954.45
2017-06-24T05:14:23.939Z,954.44
2017-06-24T05:15:23.937Z,954.41
2017-06-24T05:16:23.934Z,954.39
2017-06-24T05:17:23.930Z,954.42
2017-06-24T05:18:23.927Z,954.41
2017-06-24T05:19:23.925Z,954.41
2017-06-24T05:20:23.920Z,954.37
2017-06-24T05:21:23.917Z,954.37
2017-06-24T05:22:23.917Z,954.42
2017-06-24T05:23:23.913Z,954.43
2017-06-24T05:24:23.908Z,954.44
2017-06-24T05:25:23.906Z,954.44
2017-06-24T05:26:23.903Z,954.45
2017-06-24T05:27:23.901Z,954.48
2017-06-24T05:28:23.897Z,954.48
2017-06-24T05:29:23.897Z,954.47
2017-06-24T05:30:23.893Z,954.43
2017-06-24T05:31:23.889Z,954.44
2017-06-24T05:32:23.886Z,954.46
2017-06-24T05:33:23.883Z,954.45
2017-06-24T05:34:23.881Z,954.42
2017-06-24T05:35:23.877Z,954.43
2017-06-24T05:36:23.876Z,954.46
2017-06-24T05:37:23.873Z,954.46
2017-06-24T05:38:23.870Z,954.45
2017-06-24T05:39:23.866Z,954.44
2017-06-24T05:40:23.866Z,954.42
2017-06-24T05:41:23.862Z,954.46
2017-06-24T05:42:23.859Z,954.43
2017-06-24T05:43:23.857Z,954.44
2017-06-24T05:44:23.854Z,954.43
2017-06-24T05:45:23.854Z,954.45
2017-06-24T05:46:23.850Z,954.43
2017-06-24T05:47:23.849Z,954.39
2017-06-24T05:48:23.849Z,954.41
2017-06-24T05:49:23.844Z,954.39
2017-06-24T05:50:23.842Z,954.45
2017-06-24T05:51:23.840Z,954.44
2017-06-24T05:52:23.838Z,954.41
2017-06-24T05:53:23.835Z,954.42
2017-06-24T05:54:23.832Z,954.44
2017-06-24T05:55:23.831Z,954.38
2017-06-24T05:56:23.827Z,954.44
2017-06-24T05:57:23.826Z,954.43
2017-06-24T05:58:23.823Z,954.43
2017-06-24T05:59:23.821Z,954.45
2017-06-24T06:00:23.822Z,954.47
2017-06-24T06:01:23.818Z,954.45
2017-06-24T06:02:23.816Z,954.44
2017-06-24T06:03:23.814Z,954.49
2017-06-24T06:04:23.811Z,954.49
2017-06-24T06:05:23.809Z,954.5
2017-06-24T06:06:23.809Z,954.48
2017-06-24T06:07:23.806Z,954.48
2017-06-24T06:08:23.816Z,954.48
2017-06-24T06:09:23.823Z,954.5
2017-06-24T06:10:23.800Z,954.48
2017-06-24T06:11:23.800Z,954.51
2017-06-24T06:12:23.798Z,954.48
2017-06-24T06:13:23.796Z,954.5
2017-06-24T06:14:23.794Z,954.45
2017-06-24T06:15:23.801Z,954.49
2017-06-24T06:16:23.790Z,954.48
2017-06-24T06:17:23.790Z,954.5
2017-06-24T06:18:23.787Z,954.48
2017-06-24T06:19:23.784Z,954.53
2017-06-24T06:20:23.784Z,954.46
2017-06-24T06:21:23.784Z,954.46
2017-06-24T06:22:23.780Z,954.5
2017-06-24T06:23:23.779Z,954.48
2017-06-24T06:24:23.777Z,954.5
2017-06-24T06:25:23.776Z,954.53
2017-06-24T06:26:23.777Z,954.58
2017-06-24T06:27:23.773Z,954.55
2017-06-24T06:28:23.771Z,954.59
2017-06-24T06:29:23.772Z,954.57
2017-06-24T06:30:23.769Z,954.58
2017-06-24T06:31:23.768Z,954.59
2017-06-24T06:32:23.768Z,954.56
2017-06-24T06:33:23.766Z,954.53
2017-06-24T06:34:23.766Z,954.51
2017-06-24T06:35:23.765Z,954.52
2017-06-24T06:36:23.767Z,954.5
2017-06-24T06:37:23.764Z,954.53
2017-06-24T06:38:23.764Z,954.49
2017-06-24T06:39:23.763Z,954.51
2017-06-24T06:40:23.763Z,954.48
2017-06-24T06:41:23.762Z,954.54
2017-06-24T06:42:23.761Z,954.55
2017-06-24T06:43:23.762Z,954.58
2017-06-24T06:44:23.762Z,954.57
2017-06-24T06:45:23.762Z,954.55
2017-06-24T06:46:23.763Z,954.54
2017-06-24T06:47:23.764Z,954.52
2017-06-24T06:48:23.762Z,954.6
2017-06-24T06:49:23.764Z,954.48
2017-06-24T06:50:23.764Z,954.53
2017-06-24T06:51:23.769Z,954.44
2017-06-24T06:52:23.777Z,954.51
2017-06-24T06:53:23.765Z,954.49
2017-06-24T06:54:23.766Z,954.46
2017-06-24T06:55:23.888Z,954.45
2017-06-24T06:56:23.769Z,954.46
2017-06-24T06:57:23.770Z,954.44
2017-06-24T06:58:23.774Z,954.57
2017-06-24T06:59:23.771Z,954.52
2017-06-24T07:00:23.774Z,954.44
2017-06-24T07:01:23.774Z,954.52
2017-06-24T07:02:23.777Z,954.54
2017-06-24T07:03:23.778Z,954.5
2017-06-24T07:04:23.781Z,954.52
2017-06-24T07:05:23.785Z,954.52
2017-06-24T07:06:23.785Z,954.48
2017-06-24T07:07:23.786Z,954.5
2017-06-24T07:08:23.790Z,954.43
2017-06-24T07:09:23.794Z,954.38
2017-06-24T07:10:23.796Z,954.38
2017-06-24T07:11:23.801Z,954.37
2017-06-24T07:12:23.805Z,954.48
2017-06-24T07:13:23.810Z,954.45
2017-06-24T07:14:23.823Z,954.49
2017-06-24T07:15:23.819Z,954.38
2017-06-24T07:16:23.822Z,954.35
2017-06-24T07:17:23.825Z,954.49
2017-06-24T07:18:23.831Z,954.41
2017-06-24T07:19:23.834Z,954.33
2017-06-24T07:20:23.840Z,954.48
2017-06-24T07:21:23.844Z,954.54
2017-06-24T07:22:23.849Z,954.56
2017-06-24T07:23:23.856Z,954.59
2017-06-24T07:24:23.863Z,954.5
2017-06-24T07:25:23.864Z,954.61
2017-06-24T07:26:23.890Z,954.6
2017-06-24T07:27:23.879Z,954.52
2017-06-24T07:28:23.891Z,954.49
2017-06-24T07:29:23.907Z,954.34
2017-06-24T07:30:23.936Z,954.31
2017-06-24T07:31:23.899Z,954.27
2017-06-24T07:32:23.902Z,954.41
2017-06-24T07:33:23.907Z,954.58
2017-06-24T07:34:23.914Z,954.27
2017-06-24T07:35:23.920Z,954.48
2017-06-24T07:36:23.926Z,954.31
2017-06-24T07:37:23.931Z,954.41
2017-06-24T07:38:23.938Z,954.26
2017-06-24T07:39:23.942Z,954.31
2017-06-24T07:40:23.947Z,954.3
2017-06-24T07:41:23.953Z,954.35
2017-06-24T07:42:23.979Z,954.25
2017-06-24T07:43:23.961Z,954.25
2017-06-24T07:44:23.969Z,954.31
2017-06-24T07:45:23.974Z,954.3
2017-06-24T07:46:23.992Z,954.2
2017-06-24T07:47:23.984Z,954.3
2017-06-24T07:48:23.989Z,954.23
2017-06-24T07:49:23.994Z,954.15
2017-06-24T07:50:24.003Z,954.23
2017-06-24T07:51:24.005Z,954.17
2017-06-24T07:52:26.915Z,954.14
2017-06-24T07:53:24.017Z,954.1
2017-06-24T07:54:24.021Z,954.15
2017-06-24T07:55:24.027Z,954.24
2017-06-24T07:56:24.032Z,954.2
2017-06-24T07:57:24.039Z,954.18
2017-06-24T07:58:24.044Z,954.1
2017-06-24T07:59:24.050Z,954.1
2017-06-24T08:00:24.055Z,954.2
2017-06-24T08:01:24.065Z,954.13
2017-06-24T08:02:24.068Z,954.1
2017-06-24T08:03:24.072Z,954.1
2017-06-24T08:04:24.077Z,954.17
2017-06-24T08:05:24.085Z,954.12
2017-06-24T08:06:24.088Z,954.05
2017-06-24T08:07:24.093Z,954.14
2017-06-24T08:08:24.098Z,954.03
2017-06-24T08:09:24.102Z,954.06
2017-06-24T08:10:24.107Z,954.03
2017-06-24T08:11:24.110Z,954.05
2017-06-24T08:12:24.113Z,953.97
2017-06-24T08:13:24.119Z,953.97
2017-06-24T08:14:24.122Z,954.03
2017-06-24T08:15:24.125Z,953.92
2017-06-24T08:16:24.129Z,953.94
2017-06-24T08:17:24.132Z,953.9
2017-06-24T08:18:24.157Z,953.94
2017-06-24T08:19:24.149Z,953.99
2017-06-24T08:20:24.142Z,953.96
2017-06-24T08:21:24.155Z,953.99
2017-06-24T08:22:24.163Z,954
2017-06-24T08:23:24.151Z,953.98
2017-06-24T08:24:24.155Z,953.98
2017-06-24T08:25:24.157Z,953.96
2017-06-24T08:26:24.159Z,953.94
2017-06-24T08:27:24.162Z,953.96
2017-06-24T08:28:24.165Z,954
2017-06-24T08:29:24.170Z,954.07
2017-06-24T08:30:24.172Z,953.96
2017-06-24T08:31:24.175Z,953.85
2017-06-24T08:32:24.178Z,953.91
2017-06-24T08:33:24.178Z,953.98
2017-06-24T08:34:24.201Z,954
2017-06-24T08:35:24.184Z,953.97
2017-06-24T08:36:24.208Z,953.92
2017-06-24T08:37:24.191Z,953.87
2017-06-24T08:38:24.193Z,953.83
2017-06-24T08:39:24.195Z,953.95
2017-06-24T08:40:24.198Z,953.93
2017-06-24T08:41:24.201Z,953.97
2017-06-24T08:42:24.204Z,953.98
2017-06-24T08:43:24.207Z,953.95
2017-06-24T08:44:24.211Z,953.92
2017-06-24T08:45:24.215Z,953.95
2017-06-24T08:46:24.216Z,953.88
2017-06-24T08:47:24.220Z,953.9
2017-06-24T08:48:24.222Z,953.89
2017-06-24T08:49:24.225Z,953.84
2017-06-24T08:50:24.228Z,953.82
2017-06-24T08:51:24.243Z,953.81
2017-06-24T08:52:24.234Z,953.74
2017-06-24T08:53:24.237Z,953.75
2017-06-24T08:54:24.242Z,953.73
2017-06-24T08:55:24.245Z,953.78
2017-06-24T08:56:24.247Z,953.71
2017-06-24T08:57:24.250Z,953.63
2017-06-24T08:58:24.254Z,953.6
2017-06-24T08:59:24.257Z,953.68
2017-06-24T09:00:24.261Z,953.66
2017-06-24T09:01:24.263Z,953.67
2017-06-24T09:02:24.266Z,953.64
2017-06-24T09:03:24.269Z,953.62
2017-06-24T09:04:24.271Z,953.65
2017-06-24T09:05:24.274Z,953.62
2017-06-24T09:06:24.303Z,953.6
2017-06-24T09:07:24.303Z,953.68
2017-06-24T09:08:24.284Z,953.66
2017-06-24T09:09:24.287Z,953.64
2017-06-24T09:10:24.292Z,953.62
2017-06-24T09:11:24.292Z,953.66
2017-06-24T09:12:24.296Z,953.6
2017-06-24T09:13:24.321Z,953.57
2017-06-24T09:14:24.300Z,953.55
2017-06-24T09:15:24.305Z,953.56
2017-06-24T09:16:24.307Z,953.56
2017-06-24T09:17:24.310Z,953.48
2017-06-24T09:18:24.312Z,953.59
2017-06-24T09:19:24.316Z,953.64
2017-06-24T09:20:24.318Z,953.53
2017-06-24T09:21:24.320Z,953.5
2017-06-24T09:22:24.324Z,953.53
2017-06-24T09:23:24.330Z,953.52
2017-06-24T09:24:24.330Z,953.48
2017-06-24T09:25:24.331Z,953.47
2017-06-24T09:26:24.334Z,953.47
2017-06-24T09:27:24.336Z,953.41
2017-06-24T09:28:24.340Z,953.52
2017-06-24T09:29:24.342Z,953.42
2017-06-24T09:30:24.344Z,953.38
2017-06-24T09:31:24.349Z,953.39
2017-06-24T09:32:24.348Z,953.38
2017-06-24T09:33:24.351Z,953.36
2017-06-24T09:34:24.353Z,953.32
2017-06-24T09:35:24.374Z,953.34
2017-06-24T09:36:24.359Z,953.4
2017-06-24T09:37:24.362Z,953.29
2017-06-24T09:38:24.364Z,953.32
2017-06-24T09:39:24.367Z,953.32
2017-06-24T09:40:24.367Z,953.31
2017-06-24T09:41:24.369Z,953.24
2017-06-24T09:42:24.373Z,953.27
2017-06-24T09:43:24.373Z,953.35
2017-06-24T09:44:24.377Z,953.32
2017-06-24T09:45:24.382Z,953.31
2017-06-24T09:46:24.381Z,953.27
2017-06-24T09:47:24.384Z,953.32
2017-06-24T09:48:24.384Z,953.37
2017-06-24T09:49:24.386Z,953.31
2017-06-24T09:50:24.390Z,953.31
2017-06-24T09:51:24.391Z,953.39
2017-06-24T09:52:24.394Z,953.41
2017-06-24T09:53:24.396Z,953.35
2017-06-24T09:54:24.397Z,953.37
2017-06-24T09:55:24.400Z,953.37
2017-06-24T09:56:24.402Z,953.33
2017-06-24T09:57:24.404Z,953.43
2017-06-24T09:58:24.410Z,953.36
2017-06-24T09:59:24.409Z,953.4
2017-06-24T10:00:24.411Z,953.34
2017-06-24T10:01:24.413Z,953.36
2017-06-24T10:02:24.429Z,953.3
2017-06-24T10:03:24.418Z,953.33
2017-06-24T10:04:24.440Z,953.27
2017-06-24T10:05:24.421Z,953.29
2017-06-24T10:06:24.424Z,953.26
2017-06-24T10:07:24.425Z,953.24
2017-06-24T10:08:24.427Z,953.27
2017-06-24T10:09:24.429Z,953.3
2017-06-24T10:10:24.432Z,953.28
2017-06-24T10:11:24.434Z,953.32
2017-06-24T10:12:24.437Z,953.34
2017-06-24T10:13:24.438Z,953.35
2017-06-24T10:14:24.440Z,953.35
2017-06-24T10:15:24.442Z,953.3
2017-06-24T10:16:24.444Z,953.27
2017-06-24T10:17:24.446Z,953.26
2017-06-24T10:18:24.449Z,953.26
2017-06-24T10:19:24.450Z,953.25
2017-06-24T10:20:24.451Z,953.22
2017-06-24T10:21:24.455Z,953.24
2017-06-24T10:22:24.459Z,953.28
2017-06-24T10:23:24.458Z,953.33
2017-06-24T10:24:24.461Z,953.29
2017-06-24T10:25:24.462Z,953.36
2017-06-24T10:26:24.464Z,953.37
2017-06-24T10:27:24.466Z,953.33
2017-06-24T10:28:24.469Z,953.33
2017-06-24T10:29:24.470Z,953.37
2017-06-24T10:30:24.474Z,953.36
2017-06-24T10:31:24.473Z,953.44
2017-06-24T10:32:24.478Z,953.34
2017-06-24T10:33:24.480Z,953.31
2017-06-24T10:34:24.481Z,953.27
2017-06-24T10:35:24.482Z,953.32
2017-06-24T10:36:24.486Z,953.26
2017-06-24T10:37:24.487Z,953.26
2017-06-24T10:38:24.488Z,953.27
2017-06-24T10:39:24.490Z,953.31
2017-06-24T10:40:24.495Z,953.3
2017-06-24T10:41:24.496Z,953.35
2017-06-24T10:42:24.497Z,953.3
2017-06-24T10:43:24.499Z,953.25
2017-06-24T10:44:24.504Z,953.27
2017-06-24T10:45:24.504Z,953.26
2017-06-24T10:46:24.506Z,953.2
2017-06-24T10:47:24.508Z,953.26
2017-06-24T10:48:24.510Z,953.26
2017-06-24T10:49:24.512Z,953.21
2017-06-24T10:50:24.514Z,953.21
2017-06-24T10:51:24.516Z,953.14
2017-06-24T10:52:24.518Z,953.2
2017-06-24T10:53:24.521Z,953.19
2017-06-24T10:54:24.541Z,953.22
2017-06-24T10:55:24.536Z,953.22
2017-06-24T10:56:24.528Z,953.12
2017-06-24T10:57:24.548Z,953.17
2017-06-24T10:58:24.531Z,953.12
2017-06-24T10:59:24.533Z,953.23
2017-06-24T11:00:24.536Z,953.23
2017-06-24T11:01:24.538Z,953.12
2017-06-24T11:02:24.541Z,953.14
2017-06-24T11:03:24.542Z,953.13
2017-06-24T11:04:24.544Z,953.2
2017-06-24T11:05:24.546Z,953.05
2017-06-24T11:06:24.549Z,953.05
2017-06-24T11:07:24.551Z,953.12
2017-06-24T11:08:24.553Z,953.17
2017-06-24T11:09:24.557Z,953.15
2017-06-24T11:10:24.558Z,953.21
2017-06-24T11:11:24.560Z,953.21
2017-06-24T11:12:24.563Z,953.25
2017-06-24T11:13:24.565Z,953.19
2017-06-24T11:14:24.567Z,953.16
2017-06-24T11:15:24.568Z,953.15
2017-06-24T11:16:24.575Z,953.13
2017-06-24T11:17:24.581Z,953.1
2017-06-24T11:18:24.574Z,953.16
2017-06-24T11:19:24.585Z,953.17
2017-06-24T11:20:24.578Z,953.23
2017-06-24T11:21:24.580Z,953.16
2017-06-24T11:22:24.604Z,953.12
2017-06-24T11:23:24.586Z,953.09
2017-06-24T11:24:24.587Z,953.05
2017-06-24T11:25:24.592Z,953.17
2017-06-24T11:26:24.591Z,953.12
2017-06-24T11:27:24.593Z,953.17
2017-06-24T11:28:24.596Z,953.19
2017-06-24T11:29:24.597Z,953.24
2017-06-24T11:30:24.599Z,953.17
2017-06-24T11:31:24.602Z,953.17
2017-06-24T11:32:24.604Z,953.13
2017-06-24T11:33:24.606Z,953.17
2017-06-24T11:34:24.607Z,953.17
2017-06-24T11:35:24.610Z,953.11
2017-06-24T11:36:24.615Z,953.13
2017-06-24T11:37:24.637Z,953.14
2017-06-24T11:38:24.615Z,953.18
2017-06-24T11:39:24.619Z,953.23
2017-06-24T11:40:24.619Z,953.18
2017-06-24T11:41:24.625Z,953.22
2017-06-24T11:42:24.625Z,953.09
2017-06-24T11:43:24.628Z,953.18
2017-06-24T11:44:24.627Z,953.14
2017-06-24T11:45:24.644Z,953.11
2017-06-24T11:46:24.651Z,953.18
2017-06-24T11:47:24.636Z,953.14
2017-06-24T11:48:24.640Z,953.15
2017-06-24T11:49:24.639Z,953.19
2017-06-24T11:50:24.640Z,953.12
2017-06-24T11:51:24.642Z,953.03
2017-06-24T11:52:24.645Z,952.99
2017-06-24T11:53:24.648Z,952.95
2017-06-24T11:54:24.649Z,953.01
2017-06-24T11:55:24.650Z,953.05
2017-06-24T11:56:24.652Z,953.21
2017-06-24T11:57:24.657Z,953.05
2017-06-24T11:58:24.657Z,953.09
2017-06-24T11:59:24.658Z,952.99
2017-06-24T12:00:24.661Z,953.08
2017-06-24T12:01:24.664Z,953.11
2017-06-24T12:02:24.664Z,953.04
2017-06-24T12:03:24.666Z,953.07
2017-06-24T12:04:24.669Z,953
2017-06-24T12:05:24.671Z,953.04
2017-06-24T12:06:24.674Z,953
2017-06-24T12:07:24.680Z,953.04
2017-06-24T12:08:24.677Z,953
2017-06-24T12:09:24.679Z,952.97
2017-06-24T12:10:24.982Z,952.93
2017-06-24T12:11:24.699Z,952.97
2017-06-24T12:12:24.705Z,952.91
2017-06-24T12:13:24.709Z,953.07
2017-06-24T12:14:24.689Z,952.94
2017-06-24T12:15:24.693Z,953.03
2017-06-24T12:16:24.695Z,953.06
2017-06-24T12:17:24.695Z,953.12
2017-06-24T12:18:24.696Z,952.97
2017-06-24T12:19:24.700Z,953.01
2017-06-24T12:20:24.702Z,952.97
2017-06-24T12:21:24.703Z,952.97
2017-06-24T12:22:24.705Z,953.02
2017-06-24T12:23:24.708Z,952.95
2017-06-24T12:24:24.709Z,953.02
2017-06-24T12:25:24.712Z,953.01
2017-06-24T12:26:24.713Z,953.01
2017-06-24T12:27:24.716Z,953
2017-06-24T12:28:24.717Z,952.97
2017-06-24T12:29:24.718Z,952.98
2017-06-24T12:30:24.721Z,953
2017-06-24T12:31:24.724Z,953.07